Decoded Metar for LFBE (BERGERAC in FRANCE) (IATA:EGC) | Meteo·Mobile Aviation Weather
aviador You're here:

LFBE Decoded Metar

BERGERAC in FRANCE
Report Time2018-10-18 15:30:00
UTC Time2018-10-18 15:38:22
Flight Rules vfr VFR
Wind020° at 04 kt
W.Decomp.*RWY 10: 0.7 kt HW 3.9 kt LCW
W.Rank020° ranks 35
Current wind is below 020° avg. (5.0)
Visibility9999 m
Phenomena:N/A
Clouds:N/A
Expected CloudBase > 3,600 ft AGL from Temp-Dew spread
CeilingNone
Temp23°C (ISA +8)
Dew Point14°C (57% RH)
AAT22.8°C
QNH1014 hPa
Density Alt1,322 ft
Elevation171 ft
Report Wrong Elevation
Raw Report
METAR LFBE 181530Z AUTO 02004KT 340V070 CAVOK 23/14 Q1014 NOSIG=

Extra information for LFBE:More info

Metar Taf Metar & Taf Last 4 Metars F.Rules Stats Wind Profile Meteogram Temp Stats Airport Information Weather charts Add Link Nearby VenuesMetar ALERT Operation Metar Decoded Social comments